Time;durP1;ratioP1;P1;durP2;ratioP2;P2;SDS_P1;SDS_P2;PMS_P1;PMS_P2;Temp;Humidity;BMP_temperature;BMP_pressure;BME280_temperature;BME280_humidity;BME280_pressure;Samples;Min_cycle;Max_cycle;Signal;HPM_P1;HPM_P2
2023/06/17 00:00:09;;;;;;;11.48;8.65;;;;;;;;;;5064054;28;20040;-76
2023/06/17 00:02:36;;;;;;;12.98;8.98;;;;;;;;;;5068489;28;20044;-76
2023/06/17 00:05:02;;;;;;;15.73;8.77;;;;;;;;;;5050552;28;20067;-75
2023/06/17 00:07:29;;;;;;;17.42;12.63;;;;;;;;;;5069826;28;20123;-76
2023/06/17 00:09:55;;;;;;;17.83;13.35;;;;;;;;;;5070752;28;20744;-76
2023/06/17 00:12:24;;;;;;;19.02;14.30;;;;;;;;;;5068860;28;20043;-77
2023/06/17 00:14:51;;;;;;;18.80;13.57;;;;;;;;;;5052577;28;20115;-77
2023/06/17 00:17:17;;;;;;;17.63;13.07;;;;;;;;;;5067892;28;20618;-76
2023/06/17 00:19:44;;;;;;;16.73;12.93;;;;;;;;;;5067274;28;20195;-77
2023/06/17 00:22:10;;;;;;;16.10;12.32;;;;;;;;;;5055662;28;20163;-76
2023/06/17 00:24:37;;;;;;;11.10;9.20;;;;;;;;;;5071139;28;20031;-76
2023/06/17 00:27:03;;;;;;;15.02;10.10;;;;;;;;;;5052298;28;20027;-76
2023/06/17 00:29:29;;;;;;;15.45;10.55;;;;;;;;;;5064671;28;20143;-76
2023/06/17 00:31:55;;;;;;;11.57;9.20;;;;;;;;;;5052756;28;20072;-77
2023/06/17 00:34:21;;;;;;;12.18;9.50;;;;;;;;;;5051311;28;20416;-77
2023/06/17 00:36:47;;;;;;;14.48;10.93;;;;;;;;;;5066078;28;20527;-76
2023/06/17 00:39:15;;;;;;;15.18;11.13;;;;;;;;;;5070307;28;20684;-77
2023/06/17 00:41:41;;;;;;;14.80;11.13;;;;;;;;;;5066146;28;20017;-77
2023/06/17 00:44:07;;;;;;;15.05;11.70;;;;;;;;;;5049990;28;20465;-76
2023/06/17 00:46:41;;;;;;;13.05;10.73;;;;;;;;;;5072726;28;20025;-76
2023/06/17 00:49:09;;;;;;;11.32;8.07;;;;;;;;;;5066866;28;20017;-77
2023/06/17 00:51:36;;;;;;;9.82;8.05;;;;;;;;;;5066770;28;20025;-76
2023/06/17 00:54:02;;;;;;;7.57;6.75;;;;;;;;;;5050048;28;20107;-76
2023/06/17 00:56:29;;;;;;;7.82;6.65;;;;;;;;;;5062851;28;20552;-76
2023/06/17 00:58:57;;;;;;;7.00;5.88;;;;;;;;;;5059262;28;20031;-77
2023/06/17 01:01:29;;;;;;;8.55;6.68;;;;;;;;;;5070240;28;20471;-78
2023/06/17 01:03:56;;;;;;;9.80;6.35;;;;;;;;;;5064536;28;20021;-77
2023/06/17 01:06:26;;;;;;;7.38;6.57;;;;;;;;;;5067713;28;20082;-78
2023/06/17 01:09:01;;;;;;;7.32;6.53;;;;;;;;;;5071284;28;20078;-77
2023/06/17 01:11:28;;;;;;;7.03;6.07;;;;;;;;;;5067538;28;20541;-77
2023/06/17 01:13:55;;;;;;;8.10;5.78;;;;;;;;;;5047009;28;21084;-76
2023/06/17 01:16:22;;;;;;;7.15;5.82;;;;;;;;;;5070632;28;20128;-76
2023/06/17 01:18:52;;;;;;;7.13;6.43;;;;;;;;;;5068516;28;20025;-76
2023/06/17 01:21:20;;;;;;;7.85;6.53;;;;;;;;;;5057521;28;20454;-76
2023/06/17 01:23:53;;;;;;;9.20;6.72;;;;;;;;;;5067928;28;20638;-77
2023/06/17 01:26:22;;;;;;;7.60;5.88;;;;;;;;;;5068971;28;20019;-77
2023/06/17 01:28:48;;;;;;;7.00;6.13;;;;;;;;;;5064295;28;20031;-76
2023/06/17 01:31:18;;;;;;;8.55;5.80;;;;;;;;;;5064399;28;20076;-76
2023/06/17 01:33:46;;;;;;;6.85;6.05;;;;;;;;;;5061272;28;20016;-76
2023/06/17 01:36:17;;;;;;;10.82;6.53;;;;;;;;;;5078941;28;20059;-76
2023/06/17 01:38:45;;;;;;;6.45;5.47;;;;;;;;;;5064170;28;20020;-77
2023/06/17 01:41:19;;;;;;;8.32;6.40;;;;;;;;;;5067796;28;20036;-76
2023/06/17 01:43:46;;;;;;;9.43;6.13;;;;;;;;;;5051990;28;20128;-76
2023/06/17 01:46:15;;;;;;;6.80;5.65;;;;;;;;;;5063782;28;20119;-76
2023/06/17 01:48:42;;;;;;;7.15;6.45;;;;;;;;;;5053041;28;20039;-76
2023/06/17 01:51:08;;;;;;;7.22;5.82;;;;;;;;;;5047453;28;20028;-76
2023/06/17 01:53:34;;;;;;;8.82;6.13;;;;;;;;;;5045011;28;20033;-76
2023/06/17 01:56:00;;;;;;;7.80;5.97;;;;;;;;;;5076306;28;20024;-76
2023/06/17 01:58:27;;;;;;;8.68;6.35;;;;;;;;;;5066236;28;20060;-77
2023/06/17 02:00:53;;;;;;;7.03;5.72;;;;;;;;;;5046152;28;20025;-77
2023/06/17 02:03:19;;;;;;;8.65;6.00;;;;;;;;;;5064720;28;20055;-76
2023/06/17 02:05:45;;;;;;;8.43;6.63;;;;;;;;;;5057739;28;20024;-76
2023/06/17 02:08:14;;;;;;;6.63;5.78;;;;;;;;;;5065108;28;20043;-76
2023/06/17 02:10:40;;;;;;;8.15;6.10;;;;;;;;;;5067313;28;20029;-77
2023/06/17 02:13:09;;;;;;;7.18;5.93;;;;;;;;;;5033355;28;20024;-76
2023/06/17 02:15:35;;;;;;;7.82;6.40;;;;;;;;;;5066421;28;20031;-77
2023/06/17 02:18:01;;;;;;;6.88;6.18;;;;;;;;;;5040096;28;20028;-77
2023/06/17 02:20:27;;;;;;;7.10;5.93;;;;;;;;;;5050264;28;20109;-77
2023/06/17 02:22:53;;;;;;;7.75;6.22;;;;;;;;;;5066256;28;20036;-77
2023/06/17 02:25:19;;;;;;;6.22;5.32;;;;;;;;;;5067461;28;20052;-77
2023/06/17 02:27:46;;;;;;;7.43;5.57;;;;;;;;;;5073409;28;20020;-76
2023/06/17 02:30:12;;;;;;;7.07;5.93;;;;;;;;;;5072650;28;20042;-76
2023/06/17 02:32:38;;;;;;;5.60;5.10;;;;;;;;;;5066326;28;20049;-77
2023/06/17 02:35:05;;;;;;;6.90;5.20;;;;;;;;;;5067527;28;20889;-77
2023/06/17 02:37:31;;;;;;;6.60;5.75;;;;;;;;;;5063873;28;20525;-76
2023/06/17 02:39:57;;;;;;;6.20;5.28;;;;;;;;;;5045710;28;20060;-76
2023/06/17 02:42:23;;;;;;;6.05;5.30;;;;;;;;;;5069618;28;20058;-78
2023/06/17 02:44:49;;;;;;;6.72;5.38;;;;;;;;;;5078883;28;20039;-78
2023/06/17 02:47:15;;;;;;;6.72;5.22;;;;;;;;;;5070393;28;20028;-77
2023/06/17 02:49:41;;;;;;;5.38;4.88;;;;;;;;;;5073381;28;20040;-77
2023/06/17 02:52:07;;;;;;;5.93;5.03;;;;;;;;;;5066723;28;20163;-77
2023/06/17 02:54:34;;;;;;;5.15;4.57;;;;;;;;;;5062324;28;20017;-77
2023/06/17 02:57:00;;;;;;;6.00;5.50;;;;;;;;;;5048015;28;20627;-77
2023/06/17 02:59:26;;;;;;;5.32;4.82;;;;;;;;;;5079317;28;20448;-77
2023/06/17 03:01:52;;;;;;;5.72;4.75;;;;;;;;;;5071694;28;20024;-76
2023/06/17 03:04:20;;;;;;;6.55;4.40;;;;;;;;;;5065689;28;20032;-78
2023/06/17 03:06:46;;;;;;;5.15;4.30;;;;;;;;;;5067560;28;20020;-77
2023/06/17 03:09:12;;;;;;;5.50;4.80;;;;;;;;;;5069247;28;21346;-78
2023/06/17 03:11:39;;;;;;;5.10;4.53;;;;;;;;;;5073702;28;20044;-77
2023/06/17 03:14:06;;;;;;;6.25;5.65;;;;;;;;;;5069500;28;20025;-77
2023/06/17 03:16:33;;;;;;;7.65;5.78;;;;;;;;;;5046517;28;20446;-78
2023/06/17 03:19:00;;;;;;;6.28;5.50;;;;;;;;;;5055556;28;20044;-78
2023/06/17 03:21:29;;;;;;;7.13;5.65;;;;;;;;;;5050659;28;20410;-78
2023/06/17 03:23:57;;;;;;;8.82;6.07;;;;;;;;;;5072191;28;20436;-78
2023/06/17 03:26:24;;;;;;;7.22;6.28;;;;;;;;;;5073483;28;20077;-77
2023/06/17 03:28:50;;;;;;;8.13;7.32;;;;;;;;;;5072879;28;20060;-77
2023/06/17 03:31:20;;;;;;;8.48;7.63;;;;;;;;;;5067723;28;20385;-77
2023/06/17 03:33:47;;;;;;;9.00;7.78;;;;;;;;;;5056148;28;20390;-77
2023/06/17 03:36:13;;;;;;;9.07;7.57;;;;;;;;;;5069522;28;20063;-78
2023/06/17 03:38:40;;;;;;;10.43;8.38;;;;;;;;;;5051186;28;20112;-78
2023/06/17 03:41:06;;;;;;;12.77;9.10;;;;;;;;;;5070249;28;20028;-78
2023/06/17 03:43:32;;;;;;;12.23;8.93;;;;;;;;;;5073197;28;20025;-77
2023/06/17 03:45:58;;;;;;;11.60;9.85;;;;;;;;;;5068895;28;20110;-78
2023/06/17 03:48:25;;;;;;;12.65;10.18;;;;;;;;;;5070215;28;20032;-78
2023/06/17 03:50:51;;;;;;;12.43;10.15;;;;;;;;;;5071515;28;20024;-77
2023/06/17 03:53:17;;;;;;;14.75;10.75;;;;;;;;;;5072426;28;20124;-77
2023/06/17 03:55:44;;;;;;;14.65;10.80;;;;;;;;;;5072205;28;20020;-77
2023/06/17 03:58:14;;;;;;;13.40;10.32;;;;;;;;;;5074259;28;20032;-79
2023/06/17 04:00:41;;;;;;;14.15;11.35;;;;;;;;;;5045224;28;20028;-77
2023/06/17 04:03:07;;;;;;;13.82;10.77;;;;;;;;;;5067836;28;20493;-77
2023/06/17 04:05:34;;;;;;;12.38;10.65;;;;;;;;;;5074209;28;20052;-77
2023/06/17 04:08:02;;;;;;;12.85;10.50;;;;;;;;;;5073124;28;20075;-77
2023/06/17 04:10:28;;;;;;;14.88;11.98;;;;;;;;;;5070926;28;20123;-79
2023/06/17 04:12:54;;;;;;;13.73;11.48;;;;;;;;;;5068902;28;20057;-77
2023/06/17 04:15:21;;;;;;;14.15;11.95;;;;;;;;;;5067051;28;20029;-78
2023/06/17 04:17:47;;;;;;;13.93;11.43;;;;;;;;;;5071640;28;20299;-78
2023/06/17 04:20:13;;;;;;;13.60;10.98;;;;;;;;;;5052387;28;20456;-77
2023/06/17 04:22:39;;;;;;;16.38;11.70;;;;;;;;;;5071840;28;20032;-77
2023/06/17 04:25:06;;;;;;;15.32;11.82;;;;;;;;;;5049627;28;20089;-78
2023/06/17 04:27:32;;;;;;;17.67;10.68;;;;;;;;;;5070512;28;20029;-79
2023/06/17 04:29:59;;;;;;;11.73;10.52;;;;;;;;;;5071038;28;20032;-77
2023/06/17 04:32:26;;;;;;;14.23;10.85;;;;;;;;;;5067279;28;20051;-78
2023/06/17 04:34:53;;;;;;;13.52;9.70;;;;;;;;;;5067549;28;20409;-77
2023/06/17 04:37:20;;;;;;;15.05;10.75;;;;;;;;;;5070554;28;20036;-77
2023/06/17 04:39:46;;;;;;;11.75;9.65;;;;;;;;;;5081450;28;20033;-78
2023/06/17 04:42:14;;;;;;;11.45;9.70;;;;;;;;;;5075814;28;20039;-78
2023/06/17 04:44:41;;;;;;;11.77;10.07;;;;;;;;;;5067696;28;20033;-77
2023/06/17 04:47:11;;;;;;;11.75;9.15;;;;;;;;;;5071904;28;20028;-77
2023/06/17 04:49:41;;;;;;;10.32;8.35;;;;;;;;;;5069182;28;20047;-77
2023/06/17 04:52:11;;;;;;;9.35;8.35;;;;;;;;;;5064634;28;20024;-77
2023/06/17 04:54:38;;;;;;;9.77;8.73;;;;;;;;;;5070617;28;20032;-77
2023/06/17 04:57:04;;;;;;;9.60;8.40;;;;;;;;;;5071263;28;20543;-77
2023/06/17 04:59:31;;;;;;;10.65;7.72;;;;;;;;;;5057843;28;20028;-77
2023/06/17 05:01:57;;;;;;;9.93;8.13;;;;;;;;;;5069485;28;20021;-78
2023/06/17 05:04:23;;;;;;;12.38;8.23;;;;;;;;;;5051558;28;20021;-77
2023/06/17 05:06:49;;;;;;;10.10;8.23;;;;;;;;;;5071268;28;20036;-77
2023/06/17 05:09:15;;;;;;;10.75;8.93;;;;;;;;;;5057212;28;20033;-77
2023/06/17 05:11:42;;;;;;;8.77;7.43;;;;;;;;;;5053644;28;20054;-78
2023/06/17 05:14:09;;;;;;;9.15;8.25;;;;;;;;;;5069354;28;20024;-77
2023/06/17 05:16:35;;;;;;;7.40;6.70;;;;;;;;;;5052568;28;20029;-77
2023/06/17 05:19:01;;;;;;;11.48;7.40;;;;;;;;;;5068564;28;20027;-78
2023/06/17 05:21:28;;;;;;;8.23;7.22;;;;;;;;;;5041417;28;20036;-77
2023/06/17 05:23:54;;;;;;;8.63;6.88;;;;;;;;;;5070675;28;20052;-78
2023/06/17 05:26:22;;;;;;;8.48;7.10;;;;;;;;;;5078293;28;20496;-77
2023/06/17 05:28:48;;;;;;;7.32;6.28;;;;;;;;;;5043655;28;20050;-78
2023/06/17 05:31:14;;;;;;;7.18;6.05;;;;;;;;;;5071718;28;20048;-77
2023/06/17 05:33:40;;;;;;;6.50;5.20;;;;;;;;;;5047501;28;20150;-77
2023/06/17 05:36:06;;;;;;;4.95;4.50;;;;;;;;;;5052079;28;20432;-79
2023/06/17 05:38:33;;;;;;;4.43;3.92;;;;;;;;;;5068439;28;20028;-78
2023/06/17 05:40:59;;;;;;;5.68;4.60;;;;;;;;;;5059946;28;20536;-77
2023/06/17 05:43:28;;;;;;;5.30;4.28;;;;;;;;;;5063491;28;20538;-77
2023/06/17 05:45:55;;;;;;;4.63;4.22;;;;;;;;;;5065323;28;20027;-78
2023/06/17 05:48:21;;;;;;;5.25;4.75;;;;;;;;;;5061308;28;20029;-78
2023/06/17 05:50:47;;;;;;;5.00;4.50;;;;;;;;;;5068531;28;20103;-79
2023/06/17 05:53:13;;;;;;;5.82;4.38;;;;;;;;;;5066397;28;20028;-78
2023/06/17 05:55:40;;;;;;;5.40;4.47;;;;;;;;;;5048720;28;20028;-80
2023/06/17 05:58:06;;;;;;;5.78;5.18;;;;;;;;;;5054214;28;20428;-80
2023/06/17 06:00:32;;;;;;;5.40;4.85;;;;;;;;;;5060943;28;20555;-79
2023/06/17 06:02:58;;;;;;;6.80;5.90;;;;;;;;;;5066592;28;20036;-80
2023/06/17 06:05:24;;;;;;;8.57;6.03;;;;;;;;;;5069435;28;20373;-80
2023/06/17 06:07:51;;;;;;;6.60;5.63;;;;;;;;;;5069308;28;20150;-79
2023/06/17 06:10:17;;;;;;;7.05;5.70;;;;;;;;;;5067327;28;20029;-79
2023/06/17 06:12:43;;;;;;;7.38;6.57;;;;;;;;;;5068201;28;20107;-78
2023/06/17 06:15:09;;;;;;;7.38;6.63;;;;;;;;;;5052533;28;20020;-79
2023/06/17 06:17:35;;;;;;;7.13;6.43;;;;;;;;;;5067915;28;20039;-78
2023/06/17 06:20:02;;;;;;;6.75;6.05;;;;;;;;;;5068002;28;20509;-79
2023/06/17 06:22:30;;;;;;;8.38;5.97;;;;;;;;;;5064575;28;20028;-80
2023/06/17 06:24:56;;;;;;;7.18;6.47;;;;;;;;;;5067690;28;20646;-79
2023/06/17 06:27:22;;;;;;;7.72;6.80;;;;;;;;;;5071352;28;20067;-78
2023/06/17 06:29:48;;;;;;;6.75;6.05;;;;;;;;;;5071904;28;20036;-80
2023/06/17 06:32:14;;;;;;;9.15;6.13;;;;;;;;;;5064501;28;20059;-80
2023/06/17 06:34:40;;;;;;;6.82;6.13;;;;;;;;;;5065172;28;20020;-80
2023/06/17 06:37:07;;;;;;;6.82;6.13;;;;;;;;;;5049504;28;20029;-81
2023/06/17 06:39:34;;;;;;;7.07;6.38;;;;;;;;;;5066410;28;20017;-79
2023/06/17 06:42:04;;;;;;;8.45;6.65;;;;;;;;;;5067965;28;20108;-84
2023/06/17 06:44:30;;;;;;;7.68;6.90;;;;;;;;;;5051724;28;20035;-79
2023/06/17 06:46:56;;;;;;;7.40;6.55;;;;;;;;;;5068540;28;20032;-81
2023/06/17 06:49:23;;;;;;;7.13;6.43;;;;;;;;;;5071548;28;20599;-79
2023/06/17 06:51:49;;;;;;;8.10;6.70;;;;;;;;;;5062711;28;20016;-79
2023/06/17 06:54:15;;;;;;;7.10;6.40;;;;;;;;;;5052534;28;20032;-76
2023/06/17 06:56:41;;;;;;;7.20;6.50;;;;;;;;;;5067075;28;20100;-79
2023/06/17 06:59:07;;;;;;;6.45;5.85;;;;;;;;;;5068215;28;20396;-78
2023/06/17 07:01:33;;;;;;;6.55;5.85;;;;;;;;;;5066064;28;20025;-79
2023/06/17 07:04:00;;;;;;;6.70;6.05;;;;;;;;;;5076637;28;20063;-79
2023/06/17 07:06:26;;;;;;;7.57;6.43;;;;;;;;;;5066501;28;20071;-80
2023/06/17 07:08:52;;;;;;;7.80;6.82;;;;;;;;;;5066089;28;20033;-78
2023/06/17 07:11:18;;;;;;;6.95;6.28;;;;;;;;;;5072739;28;20489;-77
2023/06/17 07:13:45;;;;;;;7.10;6.40;;;;;;;;;;5074614;28;20031;-77
2023/06/17 07:16:11;;;;;;;7.95;6.57;;;;;;;;;;5072501;28;20061;-78
2023/06/17 07:18:37;;;;;;;7.65;6.85;;;;;;;;;;5075147;28;20550;-79
2023/06/17 07:21:03;;;;;;;8.63;6.72;;;;;;;;;;5075045;28;20040;-77
2023/06/17 07:23:29;;;;;;;7.95;6.78;;;;;;;;;;5068482;28;20116;-79
2023/06/17 07:25:55;;;;;;;9.05;7.07;;;;;;;;;;5072495;28;20110;-79
2023/06/17 07:28:22;;;;;;;8.00;7.30;;;;;;;;;;5071688;28;20047;-80
2023/06/17 07:30:49;;;;;;;8.65;7.78;;;;;;;;;;5071356;28;20068;-80
2023/06/17 07:33:15;;;;;;;8.90;7.82;;;;;;;;;;5071659;28;20028;-82
2023/06/17 07:35:42;;;;;;;7.85;7.05;;;;;;;;;;5075988;28;20493;-78
2023/06/17 07:38:08;;;;;;;8.10;7.30;;;;;;;;;;5072297;28;20039;-81
2023/06/17 07:40:36;;;;;;;8.05;7.35;;;;;;;;;;5053690;28;20081;-78
2023/06/17 07:43:02;;;;;;;8.50;7.70;;;;;;;;;;5048545;28;20120;-79
2023/06/17 07:45:28;;;;;;;8.43;7.50;;;;;;;;;;5055433;28;20461;-78
2023/06/17 07:47:54;;;;;;;9.68;7.10;;;;;;;;;;5073234;28;20088;-78
2023/06/17 07:50:21;;;;;;;9.95;7.60;;;;;;;;;;5070711;28;20036;-78
2023/06/17 07:52:47;;;;;;;9.00;8.20;;;;;;;;;;5054421;28;20094;-83
2023/06/17 07:55:13;;;;;;;8.68;7.88;;;;;;;;;;5072642;28;20036;-77
2023/06/17 07:57:39;;;;;;;9.40;7.43;;;;;;;;;;5072352;28;20029;-80
2023/06/17 08:00:09;;;;;;;8.70;7.78;;;;;;;;;;5074556;28;20104;-79
2023/06/17 08:02:35;;;;;;;8.90;7.32;;;;;;;;;;5070232;28;20031;-80
2023/06/17 08:05:01;;;;;;;8.40;7.68;;;;;;;;;;5054819;28;20462;-81
2023/06/17 08:07:28;;;;;;;8.65;7.85;;;;;;;;;;5068100;28;20028;-79
2023/06/17 08:09:54;;;;;;;8.45;7.43;;;;;;;;;;5057225;28;20024;-82
2023/06/17 08:12:20;;;;;;;8.73;7.20;;;;;;;;;;5072393;28;20346;-82
2023/06/17 08:14:46;;;;;;;8.85;7.97;;;;;;;;;;5060448;28;20029;-80
2023/06/17 08:17:12;;;;;;;8.18;7.38;;;;;;;;;;5068917;28;20029;-80
2023/06/17 08:19:40;;;;;;;8.73;7.93;;;;;;;;;;5073619;28;20031;-81
2023/06/17 08:22:07;;;;;;;8.55;7.65;;;;;;;;;;5071000;28;20111;-82
2023/06/17 08:24:33;;;;;;;9.70;7.47;;;;;;;;;;5074214;28;20085;-82
2023/06/17 08:26:59;;;;;;;9.38;8.48;;;;;;;;;;5071254;28;20017;-82
2023/06/17 08:29:25;;;;;;;9.48;8.57;;;;;;;;;;5075852;28;20448;-81
2023/06/17 08:31:53;;;;;;;10.63;9.43;;;;;;;;;;5061439;28;20154;-82
2023/06/17 08:34:19;;;;;;;9.80;8.85;;;;;;;;;;5057423;28;20035;-82
2023/06/17 08:36:53;;;;;;;9.95;8.95;;;;;;;;;;5080713;28;20032;-81
2023/06/17 08:39:19;;;;;;;12.15;9.88;;;;;;;;;;5075467;28;20031;-79
2023/06/17 08:41:46;;;;;;;12.02;9.13;;;;;;;;;;5076324;28;20024;-81
2023/06/17 08:44:13;;;;;;;10.90;9.80;;;;;;;;;;5051354;28;20035;-81
2023/06/17 08:46:40;;;;;;;10.43;9.30;;;;;;;;;;5068282;28;20038;-80
2023/06/17 08:49:09;;;;;;;9.80;8.70;;;;;;;;;;5073742;28;20086;-81
2023/06/17 08:51:38;;;;;;;11.40;10.27;;;;;;;;;;5069043;28;20346;-79
2023/06/17 08:54:05;;;;;;;11.35;9.90;;;;;;;;;;5049840;28;20623;-81
2023/06/17 08:56:31;;;;;;;10.57;9.43;;;;;;;;;;5074048;28;20043;-79
2023/06/17 08:58:57;;;;;;;11.23;9.48;;;;;;;;;;5069757;28;20099;-80
2023/06/17 09:01:25;;;;;;;13.95;10.05;;;;;;;;;;5064469;28;20036;-80
2023/06/17 09:03:52;;;;;;;11.13;9.20;;;;;;;;;;5068694;28;20032;-80
2023/06/17 09:06:27;;;;;;;10.68;9.60;;;;;;;;;;5067008;28;20047;-81
2023/06/17 09:08:54;;;;;;;9.45;8.55;;;;;;;;;;5050284;28;20078;-76
2023/06/17 09:11:22;;;;;;;12.07;10.65;;;;;;;;;;5064404;28;20440;-76
2023/06/17 09:13:51;;;;;;;12.05;10.85;;;;;;;;;;5068295;28;20495;-77
2023/06/17 09:16:37;;;;;;;11.85;10.45;;;;;;;;;;5048356;28;20056;-76
2023/06/17 09:19:05;;;;;;;12.57;10.50;;;;;;;;;;5063924;28;20047;-77
2023/06/17 09:21:31;;;;;;;11.07;9.98;;;;;;;;;;5066203;28;20059;-78
2023/06/17 09:24:01;;;;;;;11.10;10.10;;;;;;;;;;5063285;28;20024;-77
2023/06/17 09:26:34;;;;;;;14.57;10.23;;;;;;;;;;5048914;28;20147;-77
2023/06/17 09:29:03;;;;;;;11.68;10.07;;;;;;;;;;5071410;28;20104;-77
2023/06/17 09:31:30;;;;;;;12.35;10.13;;;;;;;;;;5061572;28;20061;-76
2023/06/17 09:33:56;;;;;;;10.95;8.98;;;;;;;;;;5064306;28;20020;-77
2023/06/17 09:36:23;;;;;;;11.15;9.70;;;;;;;;;;5064830;28;20050;-76
2023/06/17 09:38:51;;;;;;;11.02;9.48;;;;;;;;;;5067373;28;20111;-76
2023/06/17 09:41:18;;;;;;;12.45;9.60;;;;;;;;;;5065548;28;20539;-78
2023/06/17 09:43:54;;;;;;;12.27;9.68;;;;;;;;;;5063912;28;20062;-79
2023/06/17 09:46:35;;;;;;;11.23;10.02;;;;;;;;;;5061385;28;20100;-78
2023/06/17 09:49:02;;;;;;;12.30;9.82;;;;;;;;;;5063794;28;20820;-77
2023/06/17 09:51:36;;;;;;;10.90;9.80;;;;;;;;;;5046715;28;20036;-77
2023/06/17 09:54:04;;;;;;;9.98;8.85;;;;;;;;;;5063789;28;20480;-76
2023/06/17 09:56:33;;;;;;;13.40;9.30;;;;;;;;;;5065915;28;20020;-78
2023/06/17 09:59:04;;;;;;;11.88;10.48;;;;;;;;;;5060200;28;20080;-80
2023/06/17 10:01:31;;;;;;;10.70;9.60;;;;;;;;;;5050090;28;20033;-76
2023/06/17 10:03:58;;;;;;;10.52;9.43;;;;;;;;;;5072034;28;20960;-77
2023/06/17 10:06:26;;;;;;;12.10;10.50;;;;;;;;;;5041784;28;20461;-81
2023/06/17 10:08:52;;;;;;;15.82;11.52;;;;;;;;;;5048692;28;20032;-76
2023/06/17 10:11:20;;;;;;;13.27;11.88;;;;;;;;;;5066313;28;20047;-77
2023/06/17 10:14:09;;;;;;;13.00;11.20;;;;;;;;;;5049965;28;20075;-74
2023/06/17 10:16:37;;;;;;;14.77;11.27;;;;;;;;;;5039313;28;20501;-75
2023/06/17 10:19:05;;;;;;;13.85;12.32;;;;;;;;;;5063638;28;20104;-76
2023/06/17 10:21:32;;;;;;;13.77;11.43;;;;;;;;;;5064824;28;20032;-79
2023/06/17 10:24:00;;;;;;;13.55;11.60;;;;;;;;;;5047437;28;20090;-76
2023/06/17 10:26:28;;;;;;;12.88;10.10;;;;;;;;;;5067428;28;20072;-77
2023/06/17 10:28:54;;;;;;;13.73;10.77;;;;;;;;;;5065920;28;20473;-76
2023/06/17 10:31:40;;;;;;;11.38;10.15;;;;;;;;;;5066395;28;20504;-79
2023/06/17 10:34:06;;;;;;;13.23;10.85;;;;;;;;;;5069018;28;20029;-79
2023/06/17 10:36:35;;;;;;;13.13;10.55;;;;;;;;;;5069667;28;20028;-77
2023/06/17 10:39:04;;;;;;;13.63;11.10;;;;;;;;;;5062640;28;20472;-81
2023/06/17 10:41:45;;;;;;;11.25;9.07;;;;;;;;;;5073699;28;20025;-77
2023/06/17 10:44:27;;;;;;;9.43;7.97;;;;;;;;;;5044260;28;20037;-79
2023/06/17 10:46:53;;;;;;;11.13;7.80;;;;;;;;;;5070601;28;20063;-76
2023/06/17 10:49:20;;;;;;;9.75;7.80;;;;;;;;;;5073257;28;20036;-78
2023/06/17 10:51:49;;;;;;;6.88;6.22;;;;;;;;;;5070864;28;20024;-79
2023/06/17 10:54:16;;;;;;;6.68;6.07;;;;;;;;;;5079360;28;20054;-81
2023/06/17 10:56:51;;;;;;;5.55;4.97;;;;;;;;;;5057037;28;20051;-78
2023/06/17 10:59:46;;;;;;;5.03;4.47;;;;;;;;;;5067675;28;20032;-78
2023/06/17 11:02:12;;;;;;;4.47;4.07;;;;;;;;;;5046632;28;20043;-77
2023/06/17 11:04:42;;;;;;;4.90;4.40;;;;;;;;;;5051897;28;20044;-77
2023/06/17 11:07:08;;;;;;;4.55;4.15;;;;;;;;;;5071340;28;20039;-78
2023/06/17 11:09:35;;;;;;;4.28;3.83;;;;;;;;;;5050629;28;20050;-79
2023/06/17 11:12:03;;;;;;;4.05;3.65;;;;;;;;;;5057473;28;20025;-79
2023/06/17 11:14:30;;;;;;;5.25;4.10;;;;;;;;;;5073939;28;20044;-79
2023/06/17 11:16:57;;;;;;;4.40;4.00;;;;;;;;;;5072134;28;20028;-80
2023/06/17 11:19:23;;;;;;;4.03;3.63;;;;;;;;;;5070543;28;20703;-78
2023/06/17 11:21:57;;;;;;;4.25;3.50;;;;;;;;;;5057136;28;20044;-79
2023/06/17 11:24:24;;;;;;;5.05;3.78;;;;;;;;;;5050175;28;20029;-77
2023/06/17 11:26:50;;;;;;;5.63;4.30;;;;;;;;;;5069467;28;20060;-78
2023/06/17 11:29:18;;;;;;;5.18;4.13;;;;;;;;;;5070439;28;20410;-80
2023/06/17 11:31:45;;;;;;;4.22;3.60;;;;;;;;;;5050551;28;20044;-79
2023/06/17 11:34:11;;;;;;;4.70;4.30;;;;;;;;;;5069494;28;20029;-81
2023/06/17 11:36:37;;;;;;;4.10;3.70;;;;;;;;;;5067611;28;20028;-77
2023/06/17 11:39:04;;;;;;;4.75;3.83;;;;;;;;;;5068782;28;20020;-76
2023/06/17 11:41:31;;;;;;;4.57;4.10;;;;;;;;;;5070540;28;20500;-78
2023/06/17 11:43:57;;;;;;;4.20;3.80;;;;;;;;;;5049932;28;20026;-79
2023/06/17 11:46:27;;;;;;;5.72;4.47;;;;;;;;;;5072125;28;20047;-79
2023/06/17 11:48:53;;;;;;;5.28;4.57;;;;;;;;;;5072315;28;20021;-79
2023/06/17 11:51:19;;;;;;;6.60;5.35;;;;;;;;;;5052961;28;20029;-79
2023/06/17 11:53:47;;;;;;;6.82;6.22;;;;;;;;;;5075760;28;20021;-79
2023/06/17 11:56:14;;;;;;;9.60;7.55;;;;;;;;;;5067652;28;20032;-78
2023/06/17 11:58:41;;;;;;;9.18;7.72;;;;;;;;;;5068457;28;20028;-80
2023/06/17 12:01:08;;;;;;;10.32;8.20;;;;;;;;;;5071207;28;20051;-79
2023/06/17 12:03:34;;;;;;;11.90;7.97;;;;;;;;;;5074773;28;20457;-78
2023/06/17 12:06:01;;;;;;;9.13;7.95;;;;;;;;;;5075775;28;20338;-79
2023/06/17 12:08:37;;;;;;;9.70;8.43;;;;;;;;;;5075236;28;20058;-79
2023/06/17 12:11:07;;;;;;;9.40;8.35;;;;;;;;;;5071524;28;20017;-79
2023/06/17 12:13:41;;;;;;;9.27;7.85;;;;;;;;;;5045074;28;20504;-78
2023/06/17 12:16:11;;;;;;;8.02;7.00;;;;;;;;;;5074147;28;20023;-81
2023/06/17 12:18:38;;;;;;;8.30;7.20;;;;;;;;;;5071602;28;20020;-79
2023/06/17 12:21:10;;;;;;;8.02;7.05;;;;;;;;;;5071769;28;20090;-80
2023/06/17 12:23:36;;;;;;;8.57;7.53;;;;;;;;;;5071616;28;20032;-78
2023/06/17 12:26:03;;;;;;;8.25;7.13;;;;;;;;;;5054448;28;20044;-79
2023/06/17 12:28:30;;;;;;;8.45;7.55;;;;;;;;;;5072149;28;20028;-80
2023/06/17 12:30:56;;;;;;;9.60;8.48;;;;;;;;;;5076183;28;20093;-79
2023/06/17 12:33:22;;;;;;;9.50;7.45;;;;;;;;;;5065445;28;20028;-78
2023/06/17 12:35:50;;;;;;;8.82;7.47;;;;;;;;;;5070102;28;20078;-79
2023/06/17 12:38:16;;;;;;;7.93;6.95;;;;;;;;;;5042746;28;20124;-80
2023/06/17 12:40:42;;;;;;;8.68;7.57;;;;;;;;;;5078066;28;20067;-78
2023/06/17 12:43:09;;;;;;;10.80;7.50;;;;;;;;;;5071914;28;20039;-79
2023/06/17 12:45:35;;;;;;;7.45;6.75;;;;;;;;;;5067053;28;20036;-79
2023/06/17 12:48:03;;;;;;;8.02;7.22;;;;;;;;;;5069472;28;20024;-80
2023/06/17 12:50:29;;;;;;;8.50;6.80;;;;;;;;;;5070561;28;20047;-79
2023/06/17 12:52:55;;;;;;;7.72;6.78;;;;;;;;;;5073166;28;20017;-80
2023/06/17 12:55:21;;;;;;;9.55;7.13;;;;;;;;;;5066791;28;20339;-79
2023/06/17 12:57:48;;;;;;;9.43;7.40;;;;;;;;;;5066754;28;20493;-78
2023/06/17 13:00:14;;;;;;;8.02;7.13;;;;;;;;;;5070362;28;20031;-79
2023/06/17 13:02:41;;;;;;;8.70;7.80;;;;;;;;;;5071193;28;20389;-80
2023/06/17 13:05:07;;;;;;;7.93;7.13;;;;;;;;;;5071848;28;20059;-80
2023/06/17 13:07:33;;;;;;;9.57;6.85;;;;;;;;;;5066960;28;20377;-79
2023/06/17 13:09:59;;;;;;;9.20;6.53;;;;;;;;;;5070738;28;20024;-79
2023/06/17 13:12:25;;;;;;;6.07;5.57;;;;;;;;;;5063089;28;20497;-79
2023/06/17 13:14:52;;;;;;;7.03;6.32;;;;;;;;;;5055474;28;20095;-86
2023/06/17 13:17:18;;;;;;;7.10;5.90;;;;;;;;;;5074098;28;20141;-79
2023/06/17 13:19:44;;;;;;;6.20;5.60;;;;;;;;;;5065956;28;20568;-79
2023/06/17 13:22:10;;;;;;;6.13;5.53;;;;;;;;;;5069460;28;20119;-81
2023/06/17 13:24:37;;;;;;;5.60;5.10;;;;;;;;;;5065255;28;20100;-78
2023/06/17 13:27:03;;;;;;;6.68;5.10;;;;;;;;;;5068278;28;20024;-78
2023/06/17 13:29:29;;;;;;;6.38;5.68;;;;;;;;;;5059963;28;20369;-78
2023/06/17 13:31:55;;;;;;;5.80;5.10;;;;;;;;;;5009196;28;1497109;-79
2023/06/17 13:34:22;;;;;;;7.43;5.57;;;;;;;;;;5066870;28;20043;-78
2023/06/17 13:36:48;;;;;;;6.40;5.43;;;;;;;;;;5047492;28;20081;-78
2023/06/17 13:39:14;;;;;;;5.60;5.05;;;;;;;;;;5065905;28;20059;-77
2023/06/17 13:41:40;;;;;;;6.20;5.32;;;;;;;;;;5066881;28;20035;-78
2023/06/17 13:44:08;;;;;;;6.63;5.28;;;;;;;;;;5050178;28;20016;-76
2023/06/17 13:46:34;;;;;;;5.10;4.68;;;;;;;;;;5067010;28;20025;-77
2023/06/17 13:49:01;;;;;;;5.70;5.20;;;;;;;;;;5070242;28;20629;-78
2023/06/17 13:51:27;;;;;;;6.50;5.90;;;;;;;;;;5066054;28;20032;-76
2023/06/17 13:53:53;;;;;;;6.53;5.30;;;;;;;;;;5067809;28;20021;-77
2023/06/17 13:56:19;;;;;;;5.95;5.35;;;;;;;;;;5048531;28;20035;-77
2023/06/17 13:58:45;;;;;;;8.68;5.55;;;;;;;;;;5048329;28;20022;-79
2023/06/17 14:01:11;;;;;;;5.97;5.38;;;;;;;;;;5064099;28;21898;-79
2023/06/17 14:03:40;;;;;;;6.55;5.25;;;;;;;;;;5070958;28;20481;-78
2023/06/17 14:06:07;;;;;;;6.78;5.53;;;;;;;;;;5066646;28;20044;-82
2023/06/17 14:08:33;;;;;;;6.45;5.85;;;;;;;;;;5068651;28;20197;-79
2023/06/17 14:10:59;;;;;;;5.88;5.28;;;;;;;;;;5070894;28;20481;-82
2023/06/17 14:13:25;;;;;;;6.78;5.38;;;;;;;;;;5067234;28;20028;-78
2023/06/17 14:15:52;;;;;;;7.63;5.05;;;;;;;;;;5071373;28;20088;-77
2023/06/17 14:18:18;;;;;;;6.80;5.25;;;;;;;;;;5066045;28;20043;-78
2023/06/17 14:20:44;;;;;;;5.90;5.25;;;;;;;;;;5068803;28;20028;-78
2023/06/17 14:23:10;;;;;;;7.32;6.07;;;;;;;;;;5070699;28;20036;-77
2023/06/17 14:25:36;;;;;;;5.28;4.63;;;;;;;;;;5058413;28;20025;-77
2023/06/17 14:28:03;;;;;;;5.78;4.45;;;;;;;;;;5046271;28;20036;-78
2023/06/17 14:30:30;;;;;;;6.30;4.45;;;;;;;;;;5068097;28;20036;-78
2023/06/17 14:32:56;;;;;;;4.95;4.47;;;;;;;;;;5082760;28;20594;-79
2023/06/17 14:35:22;;;;;;;5.07;4.57;;;;;;;;;;5066423;28;20024;-78